Panorama, Canada
Current Conditions -  °F | °C
As of 12:00 PM on Saturday 20 Dec 2014 (Local Time) from CYXC Reporting Station
Rain Showers Rain Showers  
Wind Chill: 34°   Ceiling: 4200
Heat Index: 34°   Visibility: 25mi
Dew Point: 27°   Wind: 3mph
Humidity: 75%   Direction: 200°SSW
Pressure: 29.8"   Gusts: NA
Location:  50.46°N, 116.24°W
Report Text: CYXC 201900Z 20003KT 170V230 25SM VCSH BKN042 OVC090 01/M03 A2980 RMK SC6AC2 SLP119
Loading
Personal Weather Stations






























Interactive Weather Map New forecast layout! Learn more

10-Day Weather Forecast

Advertisements
Track Severe Weather on mobile